sensor_id;sensor_type;location;lat;lon;timestamp;temperature;humidity
2543;DHT22;1116;51.502;7.414;2022-12-20T00:01:09;11.70;39.80
2543;DHT22;1116;51.502;7.414;2022-12-20T00:03:53;11.70;39.70
2543;DHT22;1116;51.502;7.414;2022-12-20T00:06:24;11.70;39.40
2543;DHT22;1116;51.502;7.414;2022-12-20T00:09:00;11.80;39.10
2543;DHT22;1116;51.502;7.414;2022-12-20T00:11:32;11.80;38.60
2543;DHT22;1116;51.502;7.414;2022-12-20T00:14:04;11.80;38.20
2543;DHT22;1116;51.502;7.414;2022-12-20T00:16:35;11.80;37.50
2543;DHT22;1116;51.502;7.414;2022-12-20T00:19:10;12.30;37.40
2543;DHT22;1116;51.502;7.414;2022-12-20T00:27:45;11.90;36.30
2543;DHT22;1116;51.502;7.414;2022-12-20T00:30:16;11.90;36.10
2543;DHT22;1116;51.502;7.414;2022-12-20T00:32:47;11.90;35.90
2543;DHT22;1116;51.502;7.414;2022-12-20T00:35:21;12.00;35.90
2543;DHT22;1116;51.502;7.414;2022-12-20T00:37:51;12.00;35.00
2543;DHT22;1116;51.502;7.414;2022-12-20T00:40:26;12.00;34.50
2543;DHT22;1116;51.502;7.414;2022-12-20T00:42:57;12.00;34.60
2543;DHT22;1116;51.502;7.414;2022-12-20T00:45:28;12.00;34.60
2543;DHT22;1116;51.502;7.414;2022-12-20T00:47:59;12.00;33.70
2543;DHT22;1116;51.502;7.414;2022-12-20T00:50:33;12.10;33.60
2543;DHT22;1116;51.502;7.414;2022-12-20T00:53:04;12.10;33.60
2543;DHT22;1116;51.502;7.414;2022-12-20T00:58:41;12.10;32.50
2543;DHT22;1116;51.502;7.414;2022-12-20T01:01:18;12.20;32.20
2543;DHT22;1116;51.502;7.414;2022-12-20T01:03:52;12.10;32.10
2543;DHT22;1116;51.502;7.414;2022-12-20T01:12:41;12.20;31.80
2543;DHT22;1116;51.502;7.414;2022-12-20T01:15:19;12.20;31.80
2543;DHT22;1116;51.502;7.414;2022-12-20T01:17:49;12.20;31.70
2543;DHT22;1116;51.502;7.414;2022-12-20T01:20:21;12.20;31.80
2543;DHT22;1116;51.502;7.414;2022-12-20T01:22:53;12.40;32.60
2543;DHT22;1116;51.502;7.414;2022-12-20T01:25:26;12.20;32.90
2543;DHT22;1116;51.502;7.414;2022-12-20T01:28:00;12.20;32.60
2543;DHT22;1116;51.502;7.414;2022-12-20T01:30:31;12.20;32.20
2543;DHT22;1116;51.502;7.414;2022-12-20T01:33:01;12.10;32.30
2543;DHT22;1116;51.502;7.414;2022-12-20T01:35:34;12.10;35.00
2543;DHT22;1116;51.502;7.414;2022-12-20T01:38:05;12.00;36.70
2543;DHT22;1116;51.502;7.414;2022-12-20T01:40:38;12.10;37.10
2543;DHT22;1116;51.502;7.414;2022-12-20T01:43:14;12.10;36.80
2543;DHT22;1116;51.502;7.414;2022-12-20T01:45:47;12.00;36.80
2543;DHT22;1116;51.502;7.414;2022-12-20T01:48:21;12.00;36.70
2543;DHT22;1116;51.502;7.414;2022-12-20T01:57:02;12.00;36.80
2543;DHT22;1116;51.502;7.414;2022-12-20T01:59:39;12.00;37.90
2543;DHT22;1116;51.502;7.414;2022-12-20T02:02:11;12.00;37.10
2543;DHT22;1116;51.502;7.414;2022-12-20T02:04:43;12.00;37.00
2543;DHT22;1116;51.502;7.414;2022-12-20T02:07:17;12.00;37.70
2543;DHT22;1116;51.502;7.414;2022-12-20T02:09:50;12.00;37.10
2543;DHT22;1116;51.502;7.414;2022-12-20T02:12:24;12.10;37.70
2543;DHT22;1116;51.502;7.414;2022-12-20T02:15:14;12.10;37.60
2543;DHT22;1116;51.502;7.414;2022-12-20T02:17:56;12.10;37.30
2543;DHT22;1116;51.502;7.414;2022-12-20T02:20:47;12.10;38.10
2543;DHT22;1116;51.502;7.414;2022-12-20T02:23:36;12.10;38.30
2543;DHT22;1116;51.502;7.414;2022-12-20T02:29:19;12.00;38.10
2543;DHT22;1116;51.502;7.414;2022-12-20T02:32:03;12.00;38.40
2543;DHT22;1116;51.502;7.414;2022-12-20T02:34:40;12.00;38.00
2543;DHT22;1116;51.502;7.414;2022-12-20T02:37:11;12.00;38.30
2543;DHT22;1116;51.502;7.414;2022-12-20T02:39:43;12.00;38.20
2543;DHT22;1116;51.502;7.414;2022-12-20T02:42:19;12.00;38.50
2543;DHT22;1116;51.502;7.414;2022-12-20T02:44:55;11.90;38.30
2543;DHT22;1116;51.502;7.414;2022-12-20T02:47:48;12.00;37.80
2543;DHT22;1116;51.502;7.414;2022-12-20T02:50:22;12.00;37.80
2543;DHT22;1116;51.502;7.414;2022-12-20T02:52:55;12.00;37.60
2543;DHT22;1116;51.502;7.414;2022-12-20T02:55:34;12.00;37.60
2543;DHT22;1116;51.502;7.414;2022-12-20T02:58:14;11.90;37.10
2543;DHT22;1116;51.502;7.414;2022-12-20T03:00:50;12.00;37.60
2543;DHT22;1116;51.502;7.414;2022-12-20T03:03:24;12.00;37.10
2543;DHT22;1116;51.502;7.414;2022-12-20T03:05:57;12.00;37.30
2543;DHT22;1116;51.502;7.414;2022-12-20T03:08:28;12.00;37.00
2543;DHT22;1116;51.502;7.414;2022-12-20T03:11:00;12.00;36.90
2543;DHT22;1116;51.502;7.414;2022-12-20T03:13:31;11.90;36.80
2543;DHT22;1116;51.502;7.414;2022-12-20T03:16:04;12.00;37.10
2543;DHT22;1116;51.502;7.414;2022-12-20T03:18:38;11.90;37.40
2543;DHT22;1116;51.502;7.414;2022-12-20T03:21:09;12.00;37.30
2543;DHT22;1116;51.502;7.414;2022-12-20T03:23:40;12.00;37.00
2543;DHT22;1116;51.502;7.414;2022-12-20T03:26:11;12.00;37.10
2543;DHT22;1116;51.502;7.414;2022-12-20T03:28:43;11.90;37.10
2543;DHT22;1116;51.502;7.414;2022-12-20T03:31:16;11.90;37.30
2543;DHT22;1116;51.502;7.414;2022-12-20T03:33:50;11.90;37.40
2543;DHT22;1116;51.502;7.414;2022-12-20T03:36:25;12.00;37.60
2543;DHT22;1116;51.502;7.414;2022-12-20T03:38:56;11.90;40.10
2543;DHT22;1116;51.502;7.414;2022-12-20T03:41:28;11.90;42.90
2543;DHT22;1116;51.502;7.414;2022-12-20T03:43:59;11.80;45.60
2543;DHT22;1116;51.502;7.414;2022-12-20T03:46:40;11.80;47.40
2543;DHT22;1116;51.502;7.414;2022-12-20T03:49:14;11.70;47.40
2543;DHT22;1116;51.502;7.414;2022-12-20T03:51:45;11.80;48.70
2543;DHT22;1116;51.502;7.414;2022-12-20T03:57:17;11.70;48.70
2543;DHT22;1116;51.502;7.414;2022-12-20T03:59:48;11.70;49.00
2543;DHT22;1116;51.502;7.414;2022-12-20T04:05:26;11.70;51.00
2543;DHT22;1116;51.502;7.414;2022-12-20T04:07:57;11.70;53.70
2543;DHT22;1116;51.502;7.414;2022-12-20T04:10:29;11.70;53.80
2543;DHT22;1116;51.502;7.414;2022-12-20T04:13:21;11.60;53.70
2543;DHT22;1116;51.502;7.414;2022-12-20T04:15:52;11.60;55.90
2543;DHT22;1116;51.502;7.414;2022-12-20T04:18:27;11.60;56.60
2543;DHT22;1116;51.502;7.414;2022-12-20T04:21:03;11.60;56.50
2543;DHT22;1116;51.502;7.414;2022-12-20T04:23:36;11.60;56.00
2543;DHT22;1116;51.502;7.414;2022-12-20T04:26:11;11.60;55.40
2543;DHT22;1116;51.502;7.414;2022-12-20T04:28:43;11.70;54.90
2543;DHT22;1116;51.502;7.414;2022-12-20T04:31:14;12.00;55.50
2543;DHT22;1116;51.502;7.414;2022-12-20T04:33:52;11.70;56.60
2543;DHT22;1116;51.502;7.414;2022-12-20T04:36:26;11.70;56.30
2543;DHT22;1116;51.502;7.414;2022-12-20T04:38:58;11.70;59.30
2543;DHT22;1116;51.502;7.414;2022-12-20T04:41:29;11.60;63.70
2543;DHT22;1116;51.502;7.414;2022-12-20T04:44:01;11.50;72.00
2543;DHT22;1116;51.502;7.414;2022-12-20T04:46:32;11.50;77.60
2543;DHT22;1116;51.502;7.414;2022-12-20T04:49:03;11.50;83.60
2543;DHT22;1116;51.502;7.414;2022-12-20T04:51:37;11.50;87.50
2543;DHT22;1116;51.502;7.414;2022-12-20T04:54:10;11.40;91.90
2543;DHT22;1116;51.502;7.414;2022-12-20T04:56:38;11.40;92.90
2543;DHT22;1116;51.502;7.414;2022-12-20T04:59:09;11.40;91.40
2543;DHT22;1116;51.502;7.414;2022-12-20T05:01:40;11.40;91.10
2543;DHT22;1116;51.502;7.414;2022-12-20T05:04:11;11.40;93.50
2543;DHT22;1116;51.502;7.414;2022-12-20T05:06:46;11.30;96.30
2543;DHT22;1116;51.502;7.414;2022-12-20T05:12:07;11.30;98.60
2543;DHT22;1116;51.502;7.414;2022-12-20T05:14:38;11.30;99.90
2543;DHT22;1116;51.502;7.414;2022-12-20T05:17:09;11.30;99.90
2543;DHT22;1116;51.502;7.414;2022-12-20T05:19:40;11.30;99.90
2543;DHT22;1116;51.502;7.414;2022-12-20T05:22:16;11.30;99.90
2543;DHT22;1116;51.502;7.414;2022-12-20T05:24:59;11.20;99.90
2543;DHT22;1116;51.502;7.414;2022-12-20T05:27:44;11.20;99.90
2543;DHT22;1116;51.502;7.414;2022-12-20T05:30:15;11.20;99.90
2543;DHT22;1116;51.502;7.414;2022-12-20T05:32:47;11.20;99.90
2543;DHT22;1116;51.502;7.414;2022-12-20T05:35:17;11.20;99.90
2543;DHT22;1116;51.502;7.414;2022-12-20T05:37:51;11.20;99.90
2543;DHT22;1116;51.502;7.414;2022-12-20T05:40:22;11.20;99.90
2543;DHT22;1116;51.502;7.414;2022-12-20T05:42:57;11.20;99.90
2543;DHT22;1116;51.502;7.414;2022-12-20T05:45:33;11.10;99.90
2543;DHT22;1116;51.502;7.414;2022-12-20T05:48:05;11.20;99.90
2543;DHT22;1116;51.502;7.414;2022-12-20T05:50:36;11.20;99.90
2543;DHT22;1116;51.502;7.414;2022-12-20T05:53:10;11.20;99.90
2543;DHT22;1116;51.502;7.414;2022-12-20T05:55:42;11.20;99.90
2543;DHT22;1116;51.502;7.414;2022-12-20T05:58:15;11.30;99.90
2543;DHT22;1116;51.502;7.414;2022-12-20T06:00:46;11.30;99.90
2543;DHT22;1116;51.502;7.414;2022-12-20T06:03:17;11.30;99.90
2543;DHT22;1116;51.502;7.414;2022-12-20T06:05:49;11.30;99.90
2543;DHT22;1116;51.502;7.414;2022-12-20T06:08:23;11.30;99.90
2543;DHT22;1116;51.502;7.414;2022-12-20T06:10:54;11.60;99.90
2543;DHT22;1116;51.502;7.414;2022-12-20T06:13:25;11.60;99.90
2543;DHT22;1116;51.502;7.414;2022-12-20T06:15:57;11.40;99.90
2543;DHT22;1116;51.502;7.414;2022-12-20T06:18:34;11.40;99.90
2543;DHT22;1116;51.502;7.414;2022-12-20T06:21:08;11.40;99.90
2543;DHT22;1116;51.502;7.414;2022-12-20T06:23:42;11.40;99.90
2543;DHT22;1116;51.502;7.414;2022-12-20T06:26:13;11.40;99.90
2543;DHT22;1116;51.502;7.414;2022-12-20T06:28:45;11.40;99.90
2543;DHT22;1116;51.502;7.414;2022-12-20T06:31:19;11.40;99.90
2543;DHT22;1116;51.502;7.414;2022-12-20T06:33:56;11.50;99.90
2543;DHT22;1116;51.502;7.414;2022-12-20T06:36:27;11.40;98.70
2543;DHT22;1116;51.502;7.414;2022-12-20T06:39:02;11.50;98.00
2543;DHT22;1116;51.502;7.414;2022-12-20T06:41:36;11.20;97.50
2543;DHT22;1116;51.502;7.414;2022-12-20T06:47:17;11.40;94.80
2543;DHT22;1116;51.502;7.414;2022-12-20T06:49:48;11.40;94.60
2543;DHT22;1116;51.502;7.414;2022-12-20T06:52:18;11.40;93.70
2543;DHT22;1116;51.502;7.414;2022-12-20T06:54:55;11.50;92.90
2543;DHT22;1116;51.502;7.414;2022-12-20T06:57:28;11.50;90.20
2543;DHT22;1116;51.502;7.414;2022-12-20T07:00:02;11.50;89.40
2543;DHT22;1116;51.502;7.414;2022-12-20T07:02:35;11.60;86.80
2543;DHT22;1116;51.502;7.414;2022-12-20T07:05:06;11.50;82.20
2543;DHT22;1116;51.502;7.414;2022-12-20T07:07:37;11.50;83.60
2543;DHT22;1116;51.502;7.414;2022-12-20T07:10:17;11.50;80.20
2543;DHT22;1116;51.502;7.414;2022-12-20T07:12:48;11.60;80.90
2543;DHT22;1116;51.502;7.414;2022-12-20T07:15:28;11.70;75.50
2543;DHT22;1116;51.502;7.414;2022-12-20T07:30:20;11.70;63.80
2543;DHT22;1116;51.502;7.414;2022-12-20T07:32:53;11.70;62.90
2543;DHT22;1116;51.502;7.414;2022-12-20T07:35:24;11.70;61.40
2543;DHT22;1116;51.502;7.414;2022-12-20T07:37:55;11.80;59.70
2543;DHT22;1116;51.502;7.414;2022-12-20T07:40:26;11.80;59.10
2543;DHT22;1116;51.502;7.414;2022-12-20T07:42:57;11.80;58.70
2543;DHT22;1116;51.502;7.414;2022-12-20T07:45:34;11.80;57.80
2543;DHT22;1116;51.502;7.414;2022-12-20T07:48:07;11.80;57.40
2543;DHT22;1116;51.502;7.414;2022-12-20T07:50:50;11.80;57.00
2543;DHT22;1116;51.502;7.414;2022-12-20T07:53:22;11.70;57.00
2543;DHT22;1116;51.502;7.414;2022-12-20T07:55:58;11.80;57.00
2543;DHT22;1116;51.502;7.414;2022-12-20T07:58:30;11.80;55.30
